Time;durP1;ratioP1;P1;durP2;ratioP2;P2;SDS_P1;SDS_P2;PMS_P1;PMS_P2;Temp;Humidity;BMP_temperature;BMP_pressure;BME280_temperature;BME280_humidity;BME280_pressure;Samples;Min_cycle;Max_cycle;Signal;HPM_P1;HPM_P2
2023/08/15 00:01:12;;;;;;;4.57;3.00;;;19.80;99.90;;;20.81;100.00;97989.78;5017890;28;20497;-78
2023/08/15 00:03:45;;;;;;;7.60;3.23;;;19.90;99.90;;;20.82;100.00;97988.72;5017953;28;25184;-78
2023/08/15 00:06:14;;;;;;;7.60;3.20;;;19.90;99.90;;;20.83;100.00;97988.44;5020247;28;20581;-78
2023/08/15 00:08:44;;;;;;;6.93;3.20;;;19.90;99.90;;;20.82;100.00;97986.06;5016137;28;20553;-78
2023/08/15 00:11:15;;;;;;;6.13;3.20;;;19.90;99.90;;;20.82;100.00;97984.22;5019583;28;20531;-78
2023/08/15 00:13:45;;;;;;;6.33;3.03;;;19.90;99.90;;;20.84;100.00;97982.09;5017808;28;21132;-78
2023/08/15 00:16:16;;;;;;;6.27;2.90;;;19.90;99.90;;;20.81;100.00;97984.44;5017301;28;20482;-78
2023/08/15 00:18:46;;;;;;;7.83;3.10;;;19.90;99.90;;;20.82;100.00;97980.75;5017352;28;20557;-78
2023/08/15 00:21:15;;;;;;;4.47;3.10;;;19.90;99.90;;;20.79;100.00;97983.91;5018770;28;20486;-78
2023/08/15 00:23:44;;;;;;;15.90;2.60;;;19.90;99.90;;;20.73;100.00;97980.41;5017578;28;20875;-78
2023/08/15 00:26:15;;;;;;;15.63;2.97;;;19.90;99.90;;;20.71;100.00;97974.53;5017309;28;20478;-78
2023/08/15 00:28:45;;;;;;;8.00;3.60;;;19.80;99.90;;;20.71;100.00;97971.09;5017141;28;20561;-78
2023/08/15 00:31:15;;;;;;;15.50;3.27;;;19.80;99.90;;;20.62;100.00;97968.06;5017642;28;20533;-78
2023/08/15 00:33:45;;;;;;;3.63;2.60;;;19.80;99.90;;;20.57;100.00;97974.16;5018103;28;20864;-78
2023/08/15 00:36:14;;;;;;;10.70;3.33;;;19.80;99.90;;;20.59;100.00;97969.38;5018979;28;20466;-78
2023/08/15 00:38:44;;;;;;;19.70;2.93;;;19.70;99.90;;;20.63;100.00;97974.19;5020534;28;20476;-78
2023/08/15 00:41:15;;;;;;;8.17;3.27;;;19.70;99.90;;;20.63;100.00;97968.88;5024167;28;20846;-78
2023/08/15 00:43:45;;;;;;;12.17;3.43;;;19.70;99.90;;;20.61;100.00;97960.38;5021695;28;20827;-79
2023/08/15 00:46:15;;;;;;;15.03;3.57;;;19.60;99.90;;;20.63;100.00;97959.06;5021958;28;20474;-78
2023/08/15 00:48:45;;;;;;;5.80;2.87;;;19.60;99.90;;;20.61;100.00;97955.84;5022139;28;20557;-78
2023/08/15 00:51:16;;;;;;;13.80;2.67;;;19.60;99.90;;;20.53;100.00;97959.78;5023532;28;20552;-78
2023/08/15 00:53:46;;;;;;;8.07;3.50;;;19.60;99.90;;;20.45;100.00;97956.75;5022443;28;20454;-78
2023/08/15 00:56:18;;;;;;;4.77;2.73;;;19.60;99.90;;;20.44;100.00;97969.25;5019523;28;20822;-78
2023/08/15 00:58:49;;;;;;;7.57;2.80;;;19.60;99.90;;;20.44;100.00;97974.56;5024363;28;20535;-78
2023/08/15 01:01:21;;;;;;;6.87;3.20;;;19.50;99.90;;;20.45;100.00;97972.69;5023272;28;20557;-78
2023/08/15 01:03:52;;;;;;;5.80;2.60;;;19.50;99.90;;;20.47;100.00;97974.06;5023612;28;20462;-79
2023/08/15 01:06:22;;;;;;;5.90;2.73;;;19.50;99.90;;;20.47;100.00;97984.72;5023797;28;21509;-78
2023/08/15 01:08:51;;;;;;;13.50;3.53;;;19.50;99.90;;;20.46;100.00;97984.94;5024210;28;20470;-78
2023/08/15 01:11:22;;;;;;;6.00;3.33;;;19.50;99.90;;;20.48;100.00;97978.31;5022043;28;20466;-78
2023/08/15 01:14:01;;;;;;;5.43;3.37;;;19.50;99.90;;;20.49;100.00;97977.28;5023786;28;20477;-79
2023/08/15 01:16:39;;;;;;;7.67;3.07;;;19.50;99.90;;;20.50;100.00;97992.16;5023703;28;20471;-78
2023/08/15 01:19:26;;;;;;;14.20;3.13;;;19.50;99.90;;;20.52;100.00;97995.38;5023643;28;20972;-78
2023/08/15 01:22:00;;;;;;;11.57;3.03;;;19.50;99.90;;;20.48;100.00;97999.56;5025614;28;20481;-78
2023/08/15 01:24:32;;;;;;;10.83;2.70;;;19.50;99.90;;;20.47;100.00;98011.28;5022746;28;20493;-78
2023/08/15 01:27:02;;;;;;;4.47;2.80;;;19.50;99.90;;;20.46;100.00;98022.94;5025039;28;20527;-79
2023/08/15 01:29:33;;;;;;;8.03;2.70;;;19.60;99.90;;;20.45;100.00;98031.97;5025599;28;20907;-78
2023/08/15 01:32:16;;;;;;;11.43;3.07;;;19.60;99.90;;;20.46;100.00;98033.56;5023593;28;20467;-78
2023/08/15 01:34:55;;;;;;;8.30;3.60;;;19.60;99.90;;;20.42;100.00;98037.78;5025048;28;20469;-78
2023/08/15 01:37:30;;;;;;;9.93;2.43;;;19.70;99.90;;;20.42;100.00;98067.00;5022631;28;20457;-78
2023/08/15 01:40:06;;;;;;;9.60;2.80;;;19.70;99.90;;;20.42;100.00;98048.41;5024608;28;20458;-78
2023/08/15 01:42:41;;;;;;;10.17;3.27;;;19.70;99.90;;;20.46;100.00;98020.28;5023514;28;20485;-78
2023/08/15 01:45:13;;;;;;;15.60;3.50;;;19.70;99.90;;;20.43;100.00;97977.47;5022944;28;21016;-78
2023/08/15 01:47:43;;;;;;;4.07;3.17;;;19.70;99.90;;;20.42;100.00;97909.44;5024471;28;20515;-78
2023/08/15 01:50:13;;;;;;;7.47;3.10;;;19.80;99.90;;;20.44;100.00;97908.13;5022781;28;21044;-77
2023/08/15 01:52:43;;;;;;;11.50;3.23;;;19.80;99.90;;;20.42;100.00;97920.06;5022917;28;20527;-79
2023/08/15 01:55:14;;;;;;;11.77;2.87;;;19.80;99.90;;;20.39;100.00;97917.94;5023620;28;20944;-78
2023/08/15 01:57:44;;;;;;;13.93;3.70;;;19.80;99.90;;;20.40;100.00;97909.72;5021270;28;20506;-77
2023/08/15 02:00:14;;;;;;;8.10;3.80;;;19.80;99.90;;;20.40;100.00;97916.88;5020122;28;21020;-78
2023/08/15 02:02:44;;;;;;;8.40;3.10;;;19.70;99.90;;;20.38;100.00;97914.47;5020861;28;21175;-78
2023/08/15 02:05:15;;;;;;;6.73;3.13;;;19.70;99.90;;;20.40;100.00;97908.91;5022839;28;20961;-78
2023/08/15 02:07:45;;;;;;;4.97;2.97;;;19.70;99.90;;;20.42;100.00;97904.94;5022777;28;20469;-78
2023/08/15 02:10:15;;;;;;;8.90;3.27;;;19.70;99.90;;;20.47;100.00;97907.66;5022338;28;20903;-78
2023/08/15 02:12:46;;;;;;;6.80;3.23;;;19.70;99.90;;;20.44;100.00;97908.13;5020228;28;20557;-78
2023/08/15 02:15:17;;;;;;;4.00;2.73;;;19.60;99.90;;;20.46;100.00;97929.16;5019790;28;20500;-78
2023/08/15 02:17:47;;;;;;;7.20;2.97;;;19.60;99.90;;;20.43;100.00;97930.47;5022384;28;20474;-78
2023/08/15 02:20:18;;;;;;;6.33;2.90;;;19.70;99.90;;;20.45;100.00;97914.25;5020702;28;20461;-78
2023/08/15 02:22:48;;;;;;;5.30;3.27;;;19.70;99.90;;;20.49;100.00;97910.84;5021226;28;20494;-78
2023/08/15 02:25:19;;;;;;;9.43;3.50;;;19.70;99.90;;;20.50;100.00;97931.06;5022360;28;20545;-78
2023/08/15 02:27:49;;;;;;;5.17;2.93;;;19.80;99.90;;;20.50;100.00;97939.03;5021520;28;20509;-78
2023/08/15 02:30:20;;;;;;;7.17;2.90;;;19.70;99.90;;;20.51;100.00;97937.19;5021078;28;20517;-78
2023/08/15 02:32:50;;;;;;;9.73;3.23;;;19.70;99.90;;;20.53;100.00;97943.03;5019846;28;20465;-77
2023/08/15 02:35:19;;;;;;;4.40;3.00;;;19.80;99.90;;;20.50;100.00;97952.31;5023327;28;20902;-78
2023/08/15 02:37:50;;;;;;;8.30;2.93;;;19.80;99.90;;;20.55;100.00;97962.16;5022476;28;20466;-78
2023/08/15 02:40:20;;;;;;;17.23;3.23;;;19.80;99.90;;;20.52;100.00;97963.47;5023762;28;20465;-78
2023/08/15 02:42:49;;;;;;;5.30;3.00;;;19.80;99.90;;;20.55;100.00;97968.28;5021975;28;20562;-79
2023/08/15 02:45:19;;;;;;;8.90;2.90;;;19.80;99.90;;;20.56;100.00;97975.22;5022917;28;21207;-78
2023/08/15 02:47:49;;;;;;;5.20;2.77;;;19.70;99.90;;;20.58;100.00;98018.25;5023540;28;20462;-78
2023/08/15 02:50:19;;;;;;;4.10;2.80;;;19.70;99.90;;;20.57;100.00;98042.44;5022068;28;21708;-78
2023/08/15 02:52:49;;;;;;;11.53;2.90;;;19.70;99.90;;;20.57;100.00;98083.13;5022529;28;20475;-78
2023/08/15 02:55:21;;;;;;;17.93;3.97;;;19.70;99.90;;;20.52;100.00;98096.34;5021148;28;20477;-79
2023/08/15 02:57:51;;;;;;;6.53;3.40;;;19.70;99.90;;;20.50;100.00;98087.00;5022258;28;20494;-79
2023/08/15 03:00:21;;;;;;;4.23;3.13;;;19.80;99.90;;;20.53;100.00;98097.16;5020406;28;20816;-78
2023/08/15 03:02:50;;;;;;;13.73;3.47;;;19.80;99.90;;;20.59;100.00;98122.72;5019201;28;20497;-79
2023/08/15 03:05:19;;;;;;;9.63;3.80;;;19.80;99.90;;;20.54;100.00;98123.47;5022527;28;20461;-78
2023/08/15 03:07:48;;;;;;;4.97;2.70;;;19.90;99.90;;;20.55;100.00;98133.03;5021525;28;20459;-78
2023/08/15 03:10:20;;;;;;;4.93;3.47;;;19.90;99.90;;;20.52;100.00;98136.19;5017967;28;20528;-82
2023/08/15 03:12:49;;;;;;;5.50;2.80;;;19.90;99.90;;;20.49;100.00;98126.06;5016049;28;20530;-79
2023/08/15 03:15:19;;;;;;;6.90;3.50;;;20.00;99.90;;;20.52;100.00;98144.16;5017257;28;20483;-78
2023/08/15 03:17:50;;;;;;;6.83;4.33;;;20.00;99.90;;;20.51;100.00;98100.03;5019267;28;20462;-78
2023/08/15 03:20:21;;;;;;;10.50;2.60;;;20.00;99.90;;;20.54;100.00;98065.03;5018823;28;20485;-79
2023/08/15 03:22:52;;;;;;;3.73;2.10;;;20.00;99.90;;;20.49;100.00;98094.19;5016601;28;20481;-78
2023/08/15 03:25:24;;;;;;;4.20;2.60;;;20.00;99.90;;;20.52;100.00;98095.53;5016426;28;20560;-83
2023/08/15 03:27:54;;;;;;;5.70;2.60;;;19.90;99.90;;;20.54;100.00;98104.88;5018447;28;20869;-78
2023/08/15 03:30:25;;;;;;;7.80;3.00;;;19.90;99.90;;;20.54;100.00;98142.09;5019124;28;20503;-76
2023/08/15 03:32:58;;;;;;;6.70;2.50;;;19.90;99.90;;;20.49;100.00;98179.22;5018417;28;20488;-77
2023/08/15 03:35:29;;;;;;;7.67;2.60;;;19.80;99.90;;;20.46;100.00;98161.09;5017946;28;20443;-78
2023/08/15 03:37:58;;;;;;;5.40;3.20;;;19.80;99.90;;;20.39;100.00;98157.03;5016273;28;20458;-77
2023/08/15 03:40:28;;;;;;;1.60;1.50;;;19.70;99.90;;;20.39;100.00;98125.94;5019887;28;20457;-77
2023/08/15 03:42:58;;;;;;;3.03;1.63;;;19.70;99.90;;;20.41;100.00;98102.59;5019153;28;20504;-78
2023/08/15 03:45:30;;;;;;;6.10;1.50;;;19.80;99.90;;;20.42;100.00;98090.09;5019462;28;20591;-77
2023/08/15 03:48:00;;;;;;;2.90;1.80;;;19.70;99.90;;;20.37;100.00;98077.59;5020886;28;20463;-77
2023/08/15 03:50:33;;;;;;;8.07;2.03;;;19.70;99.90;;;20.37;100.00;98036.94;5018136;28;20462;-77
2023/08/15 03:53:03;;;;;;;5.10;2.30;;;19.60;99.90;;;20.36;100.00;98045.94;5019458;28;20461;-77
2023/08/15 03:55:34;;;;;;;11.67;1.90;;;19.50;99.90;;;20.39;100.00;98030.31;5016773;28;20568;-77
2023/08/15 03:58:05;;;;;;;4.40;1.67;;;19.50;99.90;;;20.36;100.00;98016.72;5017519;28;20553;-78
2023/08/15 04:00:35;;;;;;;7.70;1.50;;;19.50;99.90;;;20.36;100.00;98016.72;5015729;28;20494;-77
2023/08/15 04:03:06;;;;;;;2.70;1.57;;;19.50;99.90;;;20.34;100.00;98016.97;5017823;28;20486;-81
2023/08/15 04:05:37;;;;;;;9.17;2.50;;;19.50;99.90;;;20.35;100.00;98023.88;5016625;28;20541;-77
2023/08/15 04:08:06;;;;;;;1.90;1.37;;;19.50;99.90;;;20.34;100.00;98019.63;5020640;28;20461;-78
2023/08/15 04:10:39;;;;;;;5.70;1.60;;;19.50;99.90;;;20.35;100.00;98021.22;5016063;28;20469;-77
2023/08/15 04:13:10;;;;;;;22.90;1.90;;;19.50;99.90;;;20.35;100.00;98017.78;5019055;28;20581;-78
2023/08/15 04:15:40;;;;;;;5.93;1.50;;;19.50;99.90;;;20.36;100.00;98028.16;5018345;28;20478;-78
2023/08/15 04:18:10;;;;;;;3.67;1.63;;;19.50;99.90;;;20.31;100.00;98014.00;5015945;28;21200;-77
2023/08/15 04:20:41;;;;;;;3.53;1.53;;;19.50;99.90;;;20.29;100.00;98018.78;5015867;28;20502;-79
2023/08/15 04:23:11;;;;;;;2.40;1.33;;;19.40;99.90;;;20.28;100.00;98004.69;5018923;28;20486;-77
2023/08/15 04:25:42;;;;;;;19.70;7.57;;;19.40;99.90;;;20.22;100.00;98005.66;5018854;28;20830;-77
2023/08/15 04:28:13;;;;;;;3.40;2.13;;;19.40;99.90;;;20.22;100.00;98005.66;5016986;28;20798;-78
2023/08/15 04:30:44;;;;;;;8.40;1.67;;;19.30;99.90;;;20.14;100.00;98002.63;5017516;28;20956;-77
2023/08/15 04:33:14;;;;;;;6.43;1.70;;;19.40;99.90;;;20.02;100.00;98008.09;5018170;28;20478;-77
2023/08/15 04:35:45;;;;;;;8.73;1.50;;;19.40;99.90;;;19.99;100.00;98001.41;5016553;28;20473;-77
2023/08/15 04:38:16;;;;;;;4.20;2.37;;;19.30;99.90;;;20.02;100.00;98008.09;5015066;28;20516;-76
2023/08/15 04:40:47;;;;;;;2.70;1.40;;;19.20;99.90;;;20.00;100.00;98002.22;5018859;28;20467;-76
2023/08/15 04:43:16;;;;;;;2.70;1.33;;;19.20;99.90;;;19.96;100.00;98006.41;5018142;28;20486;-78
2023/08/15 04:45:46;;;;;;;154.40;84.60;;;19.20;99.90;;;19.95;100.00;97996.88;5014754;28;20467;-76
2023/08/15 04:48:15;;;;;;;9.57;5.03;;;19.10;99.90;;;19.94;100.00;98004.03;5017595;28;20465;-78
2023/08/15 04:50:45;;;;;;;12.30;2.03;;;19.10;99.90;;;19.92;100.00;98010.63;5015851;28;20493;-78
2023/08/15 04:53:15;;;;;;;7.80;1.63;;;19.00;99.90;;;19.89;100.00;98011.09;5018367;28;20499;-77
2023/08/15 04:55:46;;;;;;;8.43;1.67;;;19.00;99.90;;;19.88;100.00;98009.53;5021544;28;20497;-77
2023/08/15 04:58:15;;;;;;;4.43;1.70;;;19.00;99.90;;;19.93;100.00;98012.22;5021507;28;21157;-77
2023/08/15 05:00:46;;;;;;;5.63;1.30;;;19.00;99.90;;;19.87;100.00;98006.06;5020780;28;20469;-77
2023/08/15 05:03:16;;;;;;;6.77;1.63;;;19.00;99.90;;;19.87;100.00;98006.06;5021540;28;20466;-78
2023/08/15 05:05:46;;;;;;;10.63;1.73;;;19.00;99.90;;;19.83;100.00;97998.84;5020003;28;20540;-78
2023/08/15 05:08:15;;;;;;;5.60;1.70;;;18.90;99.90;;;19.82;100.00;98008.63;5021241;28;20466;-78
2023/08/15 05:10:49;;;;;;;4.80;1.60;;;18.80;99.90;;;19.78;100.00;98006.75;5020355;28;20462;-78
2023/08/15 05:13:19;;;;;;;5.63;1.73;;;18.80;99.90;;;19.77;100.00;98010.44;5021375;28;20538;-78
2023/08/15 05:15:48;;;;;;;1.70;1.50;;;18.80;99.90;;;19.74;100.00;98018.91;5021330;28;20573;-77
2023/08/15 05:18:18;;;;;;;5.40;2.20;;;18.80;99.90;;;19.69;100.00;98024.94;5020825;28;20972;-77
2023/08/15 05:20:47;;;;;;;2.20;1.20;;;18.80;99.90;;;19.72;100.00;98035.06;5021260;28;20517;-77
2023/08/15 05:23:18;;;;;;;3.13;1.50;;;18.80;99.90;;;19.76;100.00;98053.94;5023819;28;20477;-77
2023/08/15 05:25:49;;;;;;;3.53;1.40;;;18.80;99.90;;;19.72;100.00;98058.94;5027689;28;20541;-78
2023/08/15 05:28:19;;;;;;;4.67;1.67;;;18.90;99.90;;;19.73;100.00;98070.38;5025982;28;20489;-78
2023/08/15 05:30:49;;;;;;;2.90;1.53;;;18.80;99.90;;;19.76;100.00;98060.06;5025075;28;20510;-78
2023/08/15 05:33:19;;;;;;;3.70;1.90;;;18.90;99.90;;;19.75;100.00;98057.66;5024205;28;20477;-77
2023/08/15 05:35:51;;;;;;;1.70;1.50;;;18.90;99.90;;;19.80;100.00;98052.41;5022861;28;20466;-77
2023/08/15 05:38:20;;;;;;;3.70;1.90;;;18.90;99.90;;;19.84;100.00;98054.34;5025576;28;21127;-78
2023/08/15 05:40:51;;;;;;;2.90;1.90;;;18.90;99.90;;;19.89;100.00;98045.63;5023465;28;20458;-77
2023/08/15 05:43:21;;;;;;;3.13;1.63;;;19.00;99.90;;;19.88;100.00;98046.69;5024106;28;20466;-77
2023/08/15 05:45:51;;;;;;;4.43;2.07;;;19.10;99.90;;;19.88;100.00;98052.00;5022545;28;20497;-78
2023/08/15 05:48:22;;;;;;;2.43;1.60;;;19.00;99.90;;;19.90;100.00;98044.56;5023296;28;20470;-78
2023/08/15 05:50:53;;;;;;;2.67;1.90;;;19.00;99.90;;;19.95;100.00;98064.03;5024782;28;20461;-76
2023/08/15 05:53:22;;;;;;;3.53;1.57;;;19.00;99.90;;;19.98;100.00;98049.47;5025961;28;20450;-77
2023/08/15 05:55:53;;;;;;;2.03;1.30;;;19.10;99.90;;;20.00;100.00;98055.31;5026487;28;20477;-77
2023/08/15 05:58:23;;;;;;;4.13;1.60;;;19.20;99.90;;;20.02;100.00;98058.53;5024095;28;20543;-77
2023/08/15 06:00:55;;;;;;;2.20;1.50;;;19.20;99.90;;;20.02;100.00;98054.03;5023953;28;20493;-77
2023/08/15 06:03:25;;;;;;;1.83;1.47;;;19.30;99.90;;;20.05;100.00;98058.06;5023822;28;20450;-78
2023/08/15 06:06:14;;;;;;;7.93;1.47;;;19.30;99.90;;;20.08;100.00;98053.03;5026069;28;20882;-78
2023/08/15 06:08:45;;;;;;;5.53;1.90;;;19.30;99.90;;;20.11;100.00;98054.41;5023917;28;20469;-78
2023/08/15 06:11:18;;;;;;;3.73;1.50;;;19.40;99.90;;;20.13;100.00;98049.66;5024640;28;20459;-77
2023/08/15 06:13:49;;;;;;;4.43;1.50;;;19.50;99.90;;;20.17;100.00;98053.41;5025259;28;20503;-77
2023/08/15 06:16:18;;;;;;;2.90;2.20;;;19.50;99.90;;;20.20;100.00;98047.59;5023681;28;20497;-78
2023/08/15 06:18:47;;;;;;;4.13;1.60;;;19.40;99.90;;;20.23;100.00;98044.47;5023331;28;20489;-77
2023/08/15 06:21:17;;;;;;;3.07;2.33;;;19.50;99.90;;;20.30;100.00;98049.59;5023225;28;20569;-78
2023/08/15 06:23:46;;;;;;;2.47;1.50;;;19.50;99.90;;;20.35;100.00;98050.44;5024479;28;20964;-78
2023/08/15 06:26:17;;;;;;;2.20;1.50;;;19.50;99.90;;;20.39;100.00;98053.41;5022943;28;20494;-77
2023/08/15 06:28:46;;;;;;;2.90;1.33;;;19.50;99.90;;;20.41;100.00;98057.41;5023449;28;20523;-78
2023/08/15 06:31:16;;;;;;;4.43;2.20;;;19.50;99.90;;;20.45;100.00;98049.75;5023803;28;20887;-78
2023/08/15 06:33:46;;;;;;;5.33;1.60;;;19.60;99.90;;;20.48;100.00;98050.06;5020902;28;20581;-78
2023/08/15 06:36:16;;;;;;;7.30;1.90;;;19.60;99.90;;;20.48;100.00;98049.25;5023272;28;20473;-78
2023/08/15 06:38:44;;;;;;;5.37;1.57;;;19.60;99.90;;;20.47;100.00;98048.47;5024317;28;20465;-78
2023/08/15 06:41:14;;;;;;;2.50;1.60;;;19.70;99.90;;;20.52;100.00;98060.97;5022835;28;20470;-78
2023/08/15 06:43:46;;;;;;;3.03;1.33;;;19.60;99.90;;;20.56;100.00;98064.75;5023004;28;20462;-78
2023/08/15 06:46:15;;;;;;;4.43;1.50;;;19.70;99.90;;;20.59;100.00;98065.06;5022677;28;20494;-78
2023/08/15 06:48:46;;;;;;;1.80;1.40;;;19.70;99.90;;;20.64;100.00;98063.50;5023822;28;20462;-78
2023/08/15 06:51:15;;;;;;;2.23;1.40;;;19.80;99.90;;;20.64;100.00;98064.31;5023327;28;20507;-78
2023/08/15 06:53:45;;;;;;;2.40;1.33;;;19.90;99.90;;;20.66;100.00;98074.69;5023272;28;20834;-78
2023/08/15 06:56:15;;;;;;;1.93;1.20;;;19.90;99.90;;;20.66;100.00;98074.69;5022289;28;20474;-78
2023/08/15 06:58:45;;;;;;;2.60;1.30;;;19.90;99.90;;;20.64;100.00;98082.91;5021893;28;20480;-78
2023/08/15 07:01:16;;;;;;;1.83;1.20;;;20.00;99.90;;;20.66;100.00;98085.31;5022798;28;20482;-78
2023/08/15 07:03:46;;;;;;;1.30;1.20;;;20.00;99.90;;;20.66;100.00;98087.97;5021916;28;20466;-78
2023/08/15 07:06:16;;;;;;;2.17;1.37;;;20.10;99.90;;;20.67;100.00;98081.59;5022287;28;21391;-77
2023/08/15 07:08:47;;;;;;;2.47;1.30;;;20.00;99.90;;;20.68;100.00;98088.53;5022024;28;20469;-77
2023/08/15 07:11:16;;;;;;;2.23;1.20;;;20.00;99.90;;;20.67;100.00;98093.03;5021751;28;20881;-78
2023/08/15 07:13:47;;;;;;;1.10;1.00;;;20.10;99.90;;;20.72;100.00;98089.66;5024316;28;20914;-78
2023/08/15 07:16:16;;;;;;;1.40;1.30;;;20.10;99.90;;;20.74;100.00;98098.16;5022792;28;20473;-78
2023/08/15 07:18:46;;;;;;;1.77;1.30;;;20.10;99.90;;;20.76;100.00;98098.69;5022215;28;20473;-78
2023/08/15 07:21:15;;;;;;;3.40;1.50;;;20.10;99.90;;;20.80;100.00;98097.16;5021480;28;20466;-78
2023/08/15 07:23:45;;;;;;;3.83;1.27;;;20.10;99.90;;;20.84;100.00;98108.88;5021021;28;21063;-78
2023/08/15 07:26:16;;;;;;;2.70;1.13;;;20.20;99.90;;;20.90;100.00;98107.88;5022446;28;20597;-77
2023/08/15 07:28:45;;;;;;;2.70;1.20;;;20.10;99.90;;;20.94;100.00;98104.47;5023814;28;20954;-78
2023/08/15 07:31:17;;;;;;;3.87;1.20;;;20.10;99.90;;;20.99;100.00;98117.84;5022146;28;20562;-78
2023/08/15 07:33:47;;;;;;;1.30;1.20;;;20.20;99.90;;;21.03;100.00;98107.50;5023112;28;20474;-78
2023/08/15 07:36:17;;;;;;;1.80;1.20;;;20.20;99.90;;;21.09;100.00;98101.97;5021541;28;20477;-77
2023/08/15 07:38:47;;;;;;;2.60;1.20;;;20.30;99.90;;;21.15;100.00;98100.16;5025494;28;20467;-78
2023/08/15 07:41:17;;;;;;;2.13;1.20;;;20.30;99.90;;;21.18;100.00;98091.69;5023210;28;20875;-78
2023/08/15 07:43:46;;;;;;;2.83;1.47;;;20.40;99.90;;;21.22;100.00;98095.44;5024024;28;20458;-78
2023/08/15 07:46:17;;;;;;;1.30;1.10;;;20.40;99.90;;;21.26;100.00;98096.53;5023394;28;20496;-78
2023/08/15 07:48:47;;;;;;;1.50;1.20;;;20.50;99.90;;;21.31;100.00;98098.44;5024523;28;20465;-79
2023/08/15 07:51:17;;;;;;;2.73;1.30;;;20.50;99.90;;;21.33;100.00;98091.81;5021290;28;20559;-78
2023/08/15 07:53:47;;;;;;;3.63;1.37;;;20.50;99.90;;;21.37;100.00;98092.91;5022478;28;20464;-76
2023/08/15 07:56:17;;;;;;;8.33;1.50;;;20.50;99.90;;;21.40;100.00;98103.03;5024211;28;20488;-78
2023/08/15 07:58:48;;;;;;;3.20;1.30;;;20.60;99.90;;;21.43;100.00;98091.88;5020267;28;20462;-77
2023/08/15 08:01:19;;;;;;;2.00;1.50;;;20.60;99.90;;;21.46;100.00;98090.56;5023292;28;20468;-78
2023/08/15 08:03:49;;;;;;;2.93;1.40;;;20.60;99.90;;;21.50;100.00;98081.81;5022513;28;20476;-79
2023/08/15 08:06:18;;;;;;;3.17;1.87;;;20.70;99.90;;;21.55;100.00;98092.47;5023049;28;20503;-78
2023/08/15 08:09:08;;;;;;;1.57;1.10;;;20.70;99.90;;;21.60;100.00;98097.03;5020721;28;20472;-78
2023/08/15 08:11:38;;;;;;;2.70;1.40;;;20.80;99.90;;;21.63;100.00;98101.03;5021070;28;20461;-78
2023/08/15 08:14:08;;;;;;;2.30;1.57;;;20.80;99.90;;;21.66;100.00;98104.00;5021271;28;20474;-78
2023/08/15 08:16:40;;;;;;;5.33;1.30;;;20.90;99.90;;;21.69;100.00;98100.84;5020945;28;20466;-78
2023/08/15 08:19:10;;;;;;;2.80;1.50;;;20.90;99.90;;;21.73;100.00;98096.59;5021600;28;20949;-77
2023/08/15 08:21:39;;;;;;;3.73;1.90;;;20.90;99.90;;;21.77;100.00;98091.56;5021017;28;20486;-77
2023/08/15 08:24:08;;;;;;;7.20;2.03;;;21.00;99.90;;;21.83;100.00;98101.97;5022777;28;20532;-77
2023/08/15 08:26:38;;;;;;;2.17;1.70;;;21.00;99.90;;;21.88;100.00;98115.34;5021756;28;20486;-78
2023/08/15 08:29:10;;;;;;;4.90;1.70;;;21.10;99.90;;;21.94;100.00;98108.19;5020407;28;20454;-77
2023/08/15 08:31:42;;;;;;;2.37;1.40;;;21.10;99.90;;;21.99;100.00;98109.03;5022460;28;20470;-77
2023/08/15 08:34:14;;;;;;;2.10;1.60;;;21.20;99.90;;;22.05;100.00;98109.84;5022396;28;21033;-77
2023/08/15 08:36:44;;;;;;;6.43;1.57;;;21.30;99.90;;;22.12;100.00;98112.28;5022965;28;20457;-77
2023/08/15 08:39:14;;;;;;;2.17;1.80;;;21.30;99.90;;;22.17;100.00;98105.13;5022305;28;20476;-76
2023/08/15 08:42:00;;;;;;;1.70;1.60;;;21.30;99.90;;;22.23;100.00;98103.28;5022237;28;20879;-77
2023/08/15 08:44:33;;;;;;;4.07;1.70;;;21.40;99.90;;;22.27;100.00;98102.50;5022554;28;20531;-78
2023/08/15 08:47:05;;;;;;;3.87;2.03;;;21.50;99.90;;;22.33;100.00;98106.78;5020275;28;20942;-77
2023/08/15 08:49:35;;;;;;;10.73;2.23;;;21.50;99.90;;;22.36;100.00;98116.91;5020787;28;20539;-78
2023/08/15 08:52:07;;;;;;;3.93;1.80;;;21.50;99.90;;;22.40;100.00;98114.53;5021785;28;20473;-77
2023/08/15 08:54:37;;;;;;;2.37;1.90;;;21.60;99.90;;;22.43;100.00;98130.00;5021725;28;20459;-78
2023/08/15 08:57:10;;;;;;;3.70;1.60;;;21.70;99.90;;;22.47;100.00;98139.88;5020867;28;20515;-77
2023/08/15 08:59:43;;;;;;;2.40;1.90;;;21.70;99.90;;;22.55;100.00;98149.25;5023769;28;20462;-77
2023/08/15 09:02:23;;;;;;;4.27;2.00;;;21.80;99.90;;;22.57;100.00;98150.59;5024036;28;20476;-79
2023/08/15 09:04:55;;;;;;;8.63;1.80;;;21.80;99.90;;;22.63;100.00;98154.06;5024658;28;20462;-78
2023/08/15 09:07:25;;;;;;;2.97;1.60;;;21.90;99.90;;;22.70;100.00;98159.22;5024326;28;20488;-78
2023/08/15 09:09:54;;;;;;;1.60;1.50;;;21.90;99.90;;;22.76;100.00;98160.81;5025189;28;20478;-78
2023/08/15 09:12:34;;;;;;;6.37;1.70;;;22.00;99.90;;;22.82;100.00;98173.91;5024686;28;20490;-78
2023/08/15 09:15:06;;;;;;;1.87;1.43;;;22.10;99.90;;;22.92;100.00;98173.94;5023663;28;20466;-78
2023/08/15 09:17:38;;;;;;;4.40;1.80;;;22.20;99.90;;;22.99;100.00;98173.69;5025092;28;21021;-77
2023/08/15 09:20:14;;;;;;;1.70;1.60;;;22.20;99.90;;;23.08;100.00;98169.44;5025197;28;20466;-78
2023/08/15 09:22:46;;;;;;;4.03;2.10;;;22.30;99.90;;;23.17;100.00;98173.19;5026150;28;20464;-78
2023/08/15 09:25:18;;;;;;;5.07;2.40;;;22.40;99.90;;;23.25;100.00;98172.66;5025023;28;20459;-78
2023/08/15 09:27:48;;;;;;;4.03;1.67;;;22.50;99.90;;;23.36;100.00;98171.59;5024429;28;20957;-77
2023/08/15 09:30:18;;;;;;;8.67;2.17;;;22.60;99.90;;;23.42;100.00;98165.25;5022914;28;20576;-77
2023/08/15 09:32:49;;;;;;;1.97;1.77;;;22.70;99.90;;;23.45;100.00;98166.56;5025283;28;20545;-78
2023/08/15 09:35:20;;;;;;;2.37;1.63;;;22.90;99.90;;;23.50;100.00;98178.03;5025133;28;20465;-78
2023/08/15 09:37:51;;;;;;;3.97;2.00;;;22.90;99.90;;;23.57;100.00;98179.66;5023899;28;20480;-77
2023/08/15 09:40:24;;;;;;;7.13;1.90;;;22.90;99.90;;;23.59;100.00;98182.84;5024780;28;20488;-78
2023/08/15 09:42:55;;;;;;;2.10;1.77;;;23.00;99.90;;;23.58;100.00;98186.59;5023250;28;20463;-78
2023/08/15 09:45:25;;;;;;;7.67;2.00;;;23.00;99.90;;;23.59;100.00;98180.19;5025812;28;20473;-77
2023/08/15 09:47:58;;;;;;;4.63;2.30;;;23.00;99.90;;;23.58;100.00;98181.25;5026625;28;20493;-78
2023/08/15 09:50:28;;;;;;;3.53;1.90;;;23.00;99.90;;;23.55;100.00;98174.56;5025034;28;20458;-78
2023/08/15 09:52:59;;;;;;;2.67;1.90;;;23.00;99.90;;;23.56;100.00;98173.50;5024905;28;20539;-77
2023/08/15 09:55:31;;;;;;;2.60;2.30;;;22.90;99.90;;;23.54;100.00;98178.31;5023358;28;20485;-78
2023/08/15 09:58:01;;;;;;;6.30;2.50;;;22.80;99.90;;;23.48;100.00;98169.50;5023084;28;20525;-78
2023/08/15 10:00:31;;;;;;;5.00;2.23;;;22.80;99.90;;;23.46;100.00;98179.63;5023058;28;20824;-78
2023/08/15 10:03:11;;;;;;;2.10;1.90;;;22.80;99.90;;;23.40;100.00;98179.88;5022679;28;20467;-78
2023/08/15 10:05:46;;;;;;;3.60;1.90;;;22.80;99.90;;;23.38;100.00;98190.81;5023820;28;21008;-77
2023/08/15 10:08:21;;;;;;;3.97;2.30;;;22.80;99.90;;;23.36;100.00;98194.84;5025925;28;20571;-77
2023/08/15 10:10:53;;;;;;;2.73;1.80;;;22.80;99.90;;;23.36;100.00;98195.63;5025467;28;20457;-76
2023/08/15 10:13:28;;;;;;;3.93;1.80;;;22.70;99.90;;;23.35;100.00;98201.25;5024841;28;20513;-78
2023/08/15 10:15:59;;;;;;;5.10;2.27;;;22.60;99.90;;;23.35;100.00;98198.56;5025595;28;20527;-78
2023/08/15 10:18:31;;;;;;;3.40;2.13;;;22.60;99.90;;;23.34;100.00;98216.44;5023358;28;20549;-77
2023/08/15 10:21:01;;;;;;;7.13;2.20;;;22.60;99.90;;;23.33;100.00;98225.50;5024611;28;20509;-78
2023/08/15 10:23:33;;;;;;;8.50;2.53;;;22.60;99.90;;;23.33;100.00;98232.72;5023962;28;20463;-79
2023/08/15 10:26:03;;;;;;;4.37;2.37;;;22.60;99.90;;;23.29;100.00;98235.09;5024996;28;20548;-78
2023/08/15 10:28:35;;;;;;;8.83;2.40;;;22.60;99.90;;;23.25;100.00;98252.75;5025498;28;20512;-79